Terminal Aerodrome Forecast
Issued by NWS

Home | Current Version | Previous Version | Text Only | Print | Product List | Glossary Off
Versions: 1 2 3 4 5 6 7 8 9 10 11 12 13 14 15 16 17 18 19 20 21 22

000
FTUS43 KBIS 251500 AAA
TAFJMS
TAF AMD
KJMS 251535Z 2516/2612 27012KT P6SM VCSH BKN018 OVC025
     FM251700 29017KT P6SM VCSH BKN025
     FM251900 30017G22KT P6SM BKN035
     FM260000 30010KT P6SM SCT035
     FM260300 26005KT P6SM SCT035=

USA.gov is the U.S. government's official web portal to all federal, state and local government web resources and services.